createdAt,value
2016-12-04T00:00:07.936Z,-2.14
2016-12-04T00:01:18.914Z,-2.12
2016-12-04T00:02:29.900Z,-1.99
2016-12-04T00:03:41.124Z,-2.1
2016-12-04T00:04:52.110Z,-2.14
2016-12-04T00:06:03.117Z,-2.1
2016-12-04T00:07:14.118Z,-2.17
2016-12-04T00:08:25.094Z,-2.07
2016-12-04T00:09:36.127Z,-2.18
2016-12-04T00:10:47.107Z,-2.25
2016-12-04T00:11:58.301Z,-2.3
2016-12-04T00:13:09.474Z,-2.32
2016-12-04T00:14:20.687Z,-2.43
2016-12-04T00:15:31.713Z,-2.3
2016-12-04T00:16:42.896Z,-2.42
2016-12-04T00:17:53.875Z,-2.34
2016-12-04T00:19:04.884Z,-2.32
2016-12-04T00:20:15.860Z,-2.34
2016-12-04T00:21:26.888Z,-2.32
2016-12-04T00:22:38.273Z,-2.27
2016-12-04T00:23:49.247Z,-2.24
2016-12-04T00:25:00.227Z,-2.24
2016-12-04T00:26:11.636Z,-2.25
2016-12-04T00:27:22.667Z,-2.25
2016-12-04T00:28:33.656Z,-2.25
2016-12-04T00:29:45.047Z,-2.25
2016-12-04T00:30:56.025Z,-2.28
2016-12-04T00:32:07.001Z,-2.27
2016-12-04T00:33:18.023Z,-2.24
2016-12-04T00:34:29.026Z,-2.28
2016-12-04T00:35:40.010Z,-2.17
2016-12-04T00:36:51.188Z,-2.25
2016-12-04T00:38:02.158Z,-2.28
2016-12-04T00:39:13.188Z,-2.18
2016-12-04T00:40:24.176Z,-2.25
2016-12-04T00:41:35.148Z,-2.28
2016-12-04T00:42:46.139Z,-2.3
2016-12-04T00:43:57.122Z,-2.3
2016-12-04T00:45:08.154Z,-2.32
2016-12-04T00:46:19.137Z,-2.42
2016-12-04T00:47:30.108Z,-2.4
2016-12-04T00:48:41.089Z,-2.39
2016-12-04T00:49:52.074Z,-2.34
2016-12-04T00:51:03.100Z,-2.39
2016-12-04T00:52:14.082Z,-2.32
2016-12-04T00:53:25.258Z,-2.3
2016-12-04T00:54:36.249Z,-2.4
2016-12-04T00:55:47.231Z,-2.39
2016-12-04T00:56:58.267Z,-2.37
2016-12-04T00:58:09.255Z,-2.42
2016-12-04T00:59:20.230Z,-2.34
2016-12-04T01:00:31.214Z,-2.3
2016-12-04T01:01:42.198Z,-2.36
2016-12-04T01:02:53.225Z,-2.4
2016-12-04T01:04:04.213Z,-2.36
2016-12-04T01:05:15.197Z,-2.42
2016-12-04T01:06:26.185Z,-2.4
2016-12-04T01:07:37.571Z,-2.37
2016-12-04T01:08:48.601Z,-2.4
2016-12-04T01:09:59.587Z,-2.39
2016-12-04T01:11:10.575Z,-2.3
2016-12-04T01:12:21.996Z,-2.28
2016-12-04T01:13:32.976Z,-2.32
2016-12-04T01:14:44.006Z,-2.25
2016-12-04T01:15:54.986Z,-2.27
2016-12-04T01:17:05.971Z,-2.27
2016-12-04T01:18:17.149Z,-2.32
2016-12-04T01:19:28.125Z,-2.27
2016-12-04T01:20:39.164Z,-2.32
2016-12-04T01:21:50.348Z,-2.28
2016-12-04T01:23:01.324Z,-2.39
2016-12-04T01:24:12.309Z,-2.28
2016-12-04T01:25:23.291Z,-2.4
2016-12-04T01:26:34.313Z,-2.39
2016-12-04T01:27:45.318Z,-2.34
2016-12-04T01:28:56.495Z,-2.39
2016-12-04T01:30:07.479Z,-2.44
2016-12-04T01:31:18.450Z,-2.36
2016-12-04T01:32:29.477Z,-2.42
2016-12-04T01:33:40.450Z,-2.53
2016-12-04T01:34:51.427Z,-2.43
2016-12-04T01:36:02.406Z,-2.37
2016-12-04T01:37:13.376Z,-2.37
2016-12-04T01:38:24.406Z,-2.37
2016-12-04T01:39:35.379Z,-2.42
2016-12-04T01:40:46.367Z,-2.36
2016-12-04T01:41:57.348Z,-2.37
2016-12-04T01:43:08.330Z,-2.44
2016-12-04T01:44:19.563Z,-2.43
2016-12-04T01:45:30.538Z,-2.43
2016-12-04T01:46:41.519Z,-2.32
2016-12-04T01:47:52.500Z,-2.37
2016-12-04T01:49:03.482Z,-2.42
2016-12-04T01:50:14.506Z,-2.46
2016-12-04T01:51:25.490Z,-2.47
2016-12-04T01:52:36.473Z,-2.49
2016-12-04T01:53:47.859Z,-2.5
2016-12-04T01:54:58.836Z,-2.42
2016-12-04T01:56:09.870Z,-2.4
2016-12-04T01:57:20.861Z,-2.44
2016-12-04T01:58:31.830Z,-2.46
2016-12-04T01:59:42.817Z,-2.4
2016-12-04T02:00:53.997Z,-2.42
2016-12-04T02:02:05.036Z,-2.5
2016-12-04T02:03:16.017Z,-2.39
2016-12-04T02:04:27.210Z,-2.42
2016-12-04T02:05:38.402Z,-2.49
2016-12-04T02:06:49.583Z,-2.43
2016-12-04T02:08:00.609Z,-2.46
2016-12-04T02:09:11.596Z,-2.49
2016-12-04T02:10:22.781Z,-2.49
2016-12-04T02:11:33.774Z,-2.47
2016-12-04T02:12:44.754Z,-2.53
2016-12-04T02:13:55.781Z,-2.61
2016-12-04T02:15:06.766Z,-2.57
2016-12-04T02:16:17.745Z,-2.49
2016-12-04T02:17:28.723Z,-2.55
2016-12-04T02:18:39.910Z,-2.6
2016-12-04T02:19:50.940Z,-2.58
2016-12-04T02:21:01.915Z,-2.49
2016-12-04T02:22:13.096Z,-2.55
2016-12-04T02:23:24.080Z,-2.58
2016-12-04T02:24:35.057Z,-2.67
2016-12-04T02:25:46.077Z,-2.65
2016-12-04T02:26:57.063Z,-2.6
2016-12-04T02:28:08.045Z,-2.64
2016-12-04T02:29:19.031Z,-2.53
2016-12-04T02:30:30.013Z,-2.6
2016-12-04T02:31:41.039Z,-2.54
2016-12-04T02:32:52.447Z,-2.62
2016-12-04T02:34:03.631Z,-2.54
2016-12-04T02:35:14.613Z,-2.55
2016-12-04T02:36:26.003Z,-2.58
2016-12-04T02:37:37.039Z,-2.55
2016-12-04T02:38:48.012Z,-2.58
2016-12-04T02:39:58.999Z,-2.58
2016-12-04T02:41:09.984Z,-2.61
2016-12-04T02:42:20.986Z,-2.68
2016-12-04T02:43:32.016Z,-2.7
2016-12-04T02:44:43.000Z,-2.73
2016-12-04T02:45:53.988Z,-2.72
2016-12-04T02:47:04.970Z,-2.76
2016-12-04T02:48:16.155Z,-2.62
2016-12-04T02:49:27.199Z,-2.68
2016-12-04T02:50:38.180Z,-2.72
2016-12-04T02:51:49.360Z,-2.67
2016-12-04T02:53:00.342Z,-2.73
2016-12-04T02:54:11.526Z,-2.67
2016-12-04T02:55:22.557Z,-2.76
2016-12-04T02:56:33.540Z,-2.75
2016-12-04T02:57:44.513Z,-2.73
2016-12-04T02:58:55.496Z,-2.67
2016-12-04T03:00:06.504Z,-2.72
2016-12-04T03:01:17.538Z,-2.61
2016-12-04T03:02:28.523Z,-2.64
2016-12-04T03:03:39.504Z,-2.54
2016-12-04T03:04:50.692Z,-2.67
2016-12-04T03:06:01.671Z,-2.58
2016-12-04T03:07:12.694Z,-2.75
2016-12-04T03:08:23.875Z,-2.76
2016-12-04T03:09:34.851Z,-2.76
2016-12-04T03:10:45.838Z,-2.75
2016-12-04T03:11:56.824Z,-2.78
2016-12-04T03:13:07.863Z,-2.73
2016-12-04T03:14:18.843Z,-2.72
2016-12-04T03:15:29.825Z,-2.75
2016-12-04T03:16:40.804Z,-2.68
2016-12-04T03:17:51.788Z,-2.7
2016-12-04T03:19:02.813Z,-2.68
2016-12-04T03:20:13.791Z,-2.75
2016-12-04T03:21:24.774Z,-2.7
2016-12-04T03:22:35.757Z,-2.73
2016-12-04T03:23:46.944Z,-2.68
2016-12-04T03:24:58.179Z,-2.68
2016-12-04T03:26:09.156Z,-2.68
2016-12-04T03:27:20.350Z,-2.73
2016-12-04T03:28:31.334Z,-2.73
2016-12-04T03:29:42.312Z,-2.73
2016-12-04T03:30:53.547Z,-2.7
2016-12-04T03:32:04.527Z,-2.75
2016-12-04T03:33:15.525Z,-2.65
2016-12-04T03:34:26.509Z,-2.76
2016-12-04T03:35:37.501Z,-2.7
2016-12-04T03:36:48.730Z,-2.75
2016-12-04T03:37:59.911Z,-2.72
2016-12-04T03:39:10.892Z,-2.67
2016-12-04T03:40:22.074Z,-2.76
2016-12-04T03:41:33.060Z,-2.75
2016-12-04T03:42:44.098Z,-2.81
2016-12-04T03:43:55.077Z,-2.79
2016-12-04T03:45:06.257Z,-2.75
2016-12-04T03:46:17.445Z,-2.81
2016-12-04T03:47:28.631Z,-2.78
2016-12-04T03:48:39.863Z,-2.82
2016-12-04T03:49:50.837Z,-2.76
2016-12-04T03:51:01.818Z,-2.7
2016-12-04T03:52:12.801Z,-2.76
2016-12-04T03:53:23.781Z,-2.81
2016-12-04T03:54:34.814Z,-2.83
2016-12-04T03:55:45.787Z,-2.79
2016-12-04T03:56:56.782Z,-2.75
2016-12-04T03:58:07.803Z,-2.82
2016-12-04T03:59:18.783Z,-2.78
2016-12-04T04:00:30.018Z,-2.79
2016-12-04T04:01:41.000Z,-2.79
2016-12-04T04:02:51.981Z,-2.83
2016-12-04T04:04:03.159Z,-2.81
2016-12-04T04:05:14.143Z,-2.85
2016-12-04T04:06:25.176Z,-2.79
2016-12-04T04:07:36.366Z,-2.86
2016-12-04T04:08:47.352Z,-2.81
2016-12-04T04:09:58.541Z,-2.93
2016-12-04T04:11:09.534Z,-2.91
2016-12-04T04:12:20.573Z,-2.79
2016-12-04T04:13:31.553Z,-2.78
2016-12-04T04:14:42.728Z,-2.91
2016-12-04T04:15:53.708Z,-2.9
2016-12-04T04:17:04.685Z,-2.91
2016-12-04T04:18:15.713Z,-2.91
2016-12-04T04:19:26.898Z,-2.86
2016-12-04T04:20:37.881Z,-2.9
2016-12-04T04:21:48.864Z,-2.9
2016-12-04T04:22:59.850Z,-2.91
2016-12-04T04:24:10.879Z,-2.93
2016-12-04T04:25:21.860Z,-2.96
2016-12-04T04:26:33.057Z,-3.09
2016-12-04T04:27:44.040Z,-3.09
2016-12-04T04:28:55.022Z,-3.06
2016-12-04T04:30:06.060Z,-3.14
2016-12-04T04:31:17.045Z,-3.11
2016-12-04T04:32:28.229Z,-3.14
2016-12-04T04:33:39.207Z,-3.11
2016-12-04T04:34:50.185Z,-3.11
2016-12-04T04:36:01.211Z,-3.04
2016-12-04T04:37:12.192Z,-3.06
2016-12-04T04:38:23.368Z,-3.07
2016-12-04T04:39:34.350Z,-3.04
2016-12-04T04:40:45.330Z,-3.09
2016-12-04T04:41:56.557Z,-3.12
2016-12-04T04:43:07.571Z,-3.14
2016-12-04T04:44:18.552Z,-3.04
2016-12-04T04:45:29.528Z,-3.17
2016-12-04T04:46:40.511Z,-3.04
2016-12-04T04:47:51.739Z,-3.12
2016-12-04T04:49:02.923Z,-3.03
2016-12-04T04:50:13.906Z,-3.03
2016-12-04T04:51:25.090Z,-3.09
2016-12-04T04:52:36.300Z,-3.04
2016-12-04T04:53:47.536Z,-3.03
2016-12-04T04:54:58.716Z,-3.01
2016-12-04T04:56:09.732Z,-3.04
2016-12-04T04:57:20.711Z,-3
2016-12-04T04:58:31.699Z,-3.11
2016-12-04T04:59:42.724Z,-3.06
2016-12-04T05:00:53.706Z,-3.07
2016-12-04T05:02:04.889Z,-3.14
2016-12-04T05:03:15.874Z,-3.28
2016-12-04T05:04:26.856Z,-3.25
2016-12-04T05:05:37.881Z,-3.28
2016-12-04T05:06:48.863Z,-3.22
2016-12-04T05:07:59.867Z,-3.28
2016-12-04T05:09:10.847Z,-3.24
2016-12-04T05:10:21.821Z,-3.25
2016-12-04T05:11:32.856Z,-3.29
2016-12-04T05:12:43.865Z,-3.28
2016-12-04T05:13:54.847Z,-3.28
2016-12-04T05:15:05.831Z,-3.22
2016-12-04T05:16:17.036Z,-3.28
2016-12-04T05:17:28.098Z,-3.28
2016-12-04T05:18:39.483Z,-3.25
2016-12-04T05:19:50.457Z,-3.15
2016-12-04T05:21:01.445Z,-3.25
2016-12-04T05:22:12.425Z,-3.29
2016-12-04T05:23:23.456Z,-3.29
2016-12-04T05:24:34.436Z,-3.29
2016-12-04T05:25:45.411Z,-3.22
2016-12-04T05:26:56.424Z,-3.3
2016-12-04T05:28:07.603Z,-3.22
2016-12-04T05:29:18.642Z,-3.28
2016-12-04T05:30:29.615Z,-3.33
2016-12-04T05:31:40.800Z,-3.36
2016-12-04T05:32:52.192Z,-3.39
2016-12-04T05:34:03.166Z,-3.42
2016-12-04T05:35:14.202Z,-3.39
2016-12-04T05:36:25.177Z,-3.43
2016-12-04T05:37:36.161Z,-3.39
2016-12-04T05:38:47.152Z,-3.42
2016-12-04T05:39:58.130Z,-3.4
2016-12-04T05:41:09.168Z,-3.38
2016-12-04T05:42:20.152Z,-3.42
2016-12-04T05:43:31.156Z,-3.36
2016-12-04T05:44:42.135Z,-3.51
2016-12-04T05:45:53.319Z,-3.4
2016-12-04T05:47:04.751Z,-3.48
2016-12-04T05:48:15.732Z,-3.48
2016-12-04T05:49:26.914Z,-3.54
2016-12-04T05:50:38.099Z,-3.58
2016-12-04T05:51:49.077Z,-3.75
2016-12-04T05:53:00.114Z,-3.63
2016-12-04T05:54:11.095Z,-3.61
2016-12-04T05:55:22.080Z,-3.75
2016-12-04T05:56:33.057Z,-3.71
2016-12-04T05:57:44.036Z,-3.75
2016-12-04T05:58:55.062Z,-3.68
2016-12-04T06:00:06.041Z,-3.71
2016-12-04T06:01:17.041Z,-3.76
2016-12-04T06:02:28.221Z,-3.83
2016-12-04T06:03:39.399Z,-3.75
2016-12-04T06:04:50.664Z,-3.82
2016-12-04T06:06:01.842Z,-3.79
2016-12-04T06:07:13.021Z,-3.88
2016-12-04T06:08:24.001Z,-3.88
2016-12-04T06:09:35.179Z,-3.91
2016-12-04T06:10:46.405Z,-3.9
2016-12-04T06:11:57.380Z,-3.82
2016-12-04T06:13:08.367Z,-3.9
2016-12-04T06:14:19.357Z,-3.91
2016-12-04T06:15:30.334Z,-3.87
2016-12-04T06:16:41.368Z,-3.91
2016-12-04T06:17:52.349Z,-3.82
2016-12-04T06:19:03.533Z,-3.82
2016-12-04T06:20:14.516Z,-3.72
2016-12-04T06:21:25.495Z,-3.82
2016-12-04T06:22:36.524Z,-3.77
2016-12-04T06:23:47.499Z,-3.75
2016-12-04T06:24:58.479Z,-3.76
2016-12-04T06:26:09.463Z,-3.72
2016-12-04T06:27:20.447Z,-3.72
2016-12-04T06:28:31.475Z,-3.71
2016-12-04T06:29:42.644Z,-3.72
2016-12-04T06:30:53.627Z,-3.77
2016-12-04T06:32:04.601Z,-3.79
2016-12-04T06:33:15.788Z,-3.75
2016-12-04T06:34:27.206Z,-3.77
2016-12-04T06:35:38.196Z,-3.79
2016-12-04T06:36:49.175Z,-3.93
2016-12-04T06:38:00.356Z,-3.93
2016-12-04T06:39:11.337Z,-3.93
2016-12-04T06:40:22.366Z,-3.94
2016-12-04T06:41:33.339Z,-3.9
2016-12-04T06:42:44.330Z,-4.01
2016-12-04T06:43:55.299Z,-3.94
2016-12-04T06:45:06.285Z,-3.94
2016-12-04T06:46:17.310Z,-3.96
2016-12-04T06:47:28.292Z,-4.05
2016-12-04T06:48:39.277Z,-4.08
2016-12-04T06:49:50.254Z,-4.01
2016-12-04T06:51:01.227Z,-3.97
2016-12-04T06:52:12.258Z,-4.04
2016-12-04T06:53:23.440Z,-3.94
2016-12-04T06:54:34.417Z,-3.97
2016-12-04T06:55:45.397Z,-3.93
2016-12-04T06:56:56.402Z,-3.97
2016-12-04T06:58:07.629Z,-3.96
2016-12-04T06:59:18.808Z,-3.88
2016-12-04T07:00:29.792Z,-3.91
2016-12-04T07:01:40.972Z,-4
2016-12-04T07:02:51.949Z,-4
2016-12-04T07:04:02.985Z,-4.04
2016-12-04T07:05:13.970Z,-3.96
2016-12-04T07:06:24.955Z,-4.08
2016-12-04T07:07:35.942Z,-4
2016-12-04T07:08:46.922Z,-4.04
2016-12-04T07:09:57.946Z,-4.08
2016-12-04T07:11:09.126Z,-4.23
2016-12-04T07:12:20.103Z,-4.14
2016-12-04T07:13:31.087Z,-4.05
2016-12-04T07:14:42.063Z,-4.16
2016-12-04T07:15:53.099Z,-4.09
2016-12-04T07:17:04.084Z,-4.09
2016-12-04T07:18:15.067Z,-4.04
2016-12-04T07:19:26.057Z,-4.09
2016-12-04T07:20:37.232Z,-4.11
2016-12-04T07:21:48.266Z,-4.19
2016-12-04T07:22:59.439Z,-4.11
2016-12-04T07:24:10.824Z,-4.14
2016-12-04T07:25:21.809Z,-4.11
2016-12-04T07:26:32.791Z,-4.23
2016-12-04T07:27:43.832Z,-4.23
2016-12-04T07:28:54.816Z,-4.12
2016-12-04T07:30:05.804Z,-4.14
2016-12-04T07:31:16.773Z,-4.12
2016-12-04T07:32:27.753Z,-4.12
2016-12-04T07:33:38.789Z,-4.11
2016-12-04T07:34:49.768Z,-4.14
2016-12-04T07:36:00.746Z,-4.18
2016-12-04T07:37:11.727Z,-4.15
2016-12-04T07:38:22.710Z,-4.15
2016-12-04T07:39:33.748Z,-4.11
2016-12-04T07:40:44.721Z,-4.05
2016-12-04T07:41:55.702Z,-4.09
2016-12-04T07:43:06.693Z,-4.15
2016-12-04T07:44:17.670Z,-4.14
2016-12-04T07:45:28.697Z,-4.11
2016-12-04T07:46:40.072Z,-3.93
2016-12-04T07:47:51.054Z,-4.04
2016-12-04T07:49:02.024Z,-4
2016-12-04T07:50:13.204Z,-3.91
2016-12-04T07:51:24.237Z,-3.9
2016-12-04T07:52:35.217Z,-3.91
2016-12-04T07:53:46.190Z,-3.76
2016-12-04T07:54:57.171Z,-3.76
2016-12-04T07:56:08.151Z,-3.77
2016-12-04T07:57:19.182Z,-3.66
2016-12-04T07:58:30.166Z,-3.65
2016-12-04T07:59:41.343Z,-3.61
2016-12-04T08:00:52.319Z,-3.53
2016-12-04T08:02:03.300Z,-3.53
2016-12-04T08:03:14.321Z,-3.39
2016-12-04T08:04:25.301Z,-3.39
2016-12-04T08:05:36.286Z,-3.3
2016-12-04T08:06:47.266Z,-3.24
2016-12-04T08:07:58.248Z,-3.14
2016-12-04T08:09:09.479Z,-3.12
2016-12-04T08:10:20.462Z,-2.94
2016-12-04T08:11:31.651Z,-2.86
2016-12-04T08:12:42.623Z,-2.76
2016-12-04T08:13:53.600Z,-2.7
2016-12-04T08:15:04.631Z,-2.61
2016-12-04T08:16:15.614Z,-2.25
2016-12-04T08:17:26.599Z,-1.91
2016-12-04T08:18:37.577Z,-1.63
2016-12-04T08:19:48.764Z,-1.27
2016-12-04T08:20:59.801Z,-1.11
2016-12-04T08:22:10.783Z,-1.03
2016-12-04T08:23:21.813Z,-0.79
2016-12-04T08:24:32.792Z,-0.43
2016-12-04T08:25:43.780Z,-0.13
2016-12-04T08:26:54.815Z,0.05
2016-12-04T08:28:05.803Z,0.09
2016-12-04T08:29:16.778Z,0.03
2016-12-04T08:30:27.759Z,0.02
2016-12-04T08:31:38.738Z,0.14
2016-12-04T08:32:49.780Z,0.31
2016-12-04T08:34:00.964Z,0.41
2016-12-04T08:35:11.944Z,0.64
2016-12-04T08:36:22.928Z,0.71
2016-12-04T08:37:33.917Z,0.78
2016-12-04T08:38:44.952Z,0.78
2016-12-04T08:39:56.359Z,0.99
2016-12-04T08:41:07.346Z,1.12
2016-12-04T08:42:18.320Z,1.32
2016-12-04T08:43:29.301Z,1.68
2016-12-04T08:44:40.333Z,2.02
2016-12-04T08:45:51.313Z,2.44
2016-12-04T08:47:02.293Z,2.77
2016-12-04T08:48:13.279Z,3.05
2016-12-04T08:49:24.674Z,3.06
2016-12-04T08:50:35.705Z,3.13
2016-12-04T08:51:46.691Z,3.21
2016-12-04T08:52:57.677Z,3.27
2016-12-04T08:54:08.872Z,3.34
2016-12-04T08:55:19.859Z,3.4
2016-12-04T08:56:30.893Z,3.4
2016-12-04T08:57:41.879Z,3.39
2016-12-04T08:58:52.866Z,3.53
2016-12-04T09:00:03.848Z,3.57
2016-12-04T09:01:14.840Z,3.58
2016-12-04T09:02:25.877Z,3.61
2016-12-04T09:03:36.863Z,3.63
2016-12-04T09:04:47.875Z,3.84
2016-12-04T09:05:58.852Z,4.46
2016-12-04T09:07:09.839Z,4.97
2016-12-04T09:08:20.881Z,5.72
2016-12-04T09:09:31.877Z,6.31
2016-12-04T09:10:42.863Z,6.94
2016-12-04T09:11:53.849Z,7.37
2016-12-04T09:13:04.845Z,7.8
2016-12-04T09:14:15.887Z,8.14
2016-12-04T09:15:27.079Z,8.67
2016-12-04T09:16:38.268Z,9.04
2016-12-04T09:17:49.456Z,9.3
2016-12-04T09:19:00.447Z,9.56
2016-12-04T09:20:11.484Z,9.85
2016-12-04T09:21:22.478Z,10.26
2016-12-04T09:22:33.472Z,10.63
2016-12-04T09:23:44.458Z,10.9
2016-12-04T09:24:55.496Z,11.21
2016-12-04T09:26:06.739Z,11.34
2016-12-04T09:27:17.942Z,11.59
2016-12-04T09:28:29.143Z,11.59
2016-12-04T09:29:40.335Z,11.73
2016-12-04T09:30:51.322Z,11.89
2016-12-04T09:32:02.372Z,12.11
2016-12-04T09:33:13.573Z,12.25
2016-12-04T09:34:24.775Z,12.45
2016-12-04T09:35:35.996Z,12.25
2016-12-04T09:36:46.993Z,12.31
2016-12-04T09:37:58.070Z,12.28
2016-12-04T09:39:09.068Z,12.26
2016-12-04T09:40:20.053Z,12.22
2016-12-04T09:41:31.074Z,12.31
2016-12-04T09:42:42.074Z,12.33
2016-12-04T09:43:53.114Z,12.28
2016-12-04T09:45:04.525Z,12.37
2016-12-04T09:46:15.550Z,12.51
2016-12-04T09:47:26.542Z,12.84
2016-12-04T09:48:37.539Z,12.76
2016-12-04T09:49:48.585Z,12.71
2016-12-04T09:50:59.587Z,12.56
2016-12-04T09:52:10.570Z,12.71
2016-12-04T09:53:21.574Z,12.83
2016-12-04T09:54:32.579Z,12.94
2016-12-04T09:55:43.827Z,12.74
2016-12-04T09:56:54.824Z,12.81
2016-12-04T09:58:05.816Z,12.94
2016-12-04T09:59:17.026Z,13.01
2016-12-04T10:00:28.026Z,13.07
2016-12-04T10:01:39.091Z,12.91
2016-12-04T10:02:50.090Z,13.01
2016-12-04T10:04:01.082Z,12.94
2016-12-04T10:05:12.085Z,12.56
2016-12-04T10:06:23.279Z,12.59
2016-12-04T10:07:34.331Z,12.58
2016-12-04T10:08:45.332Z,12.65
2016-12-04T10:09:56.334Z,12.71
2016-12-04T10:11:07.568Z,12.71
2016-12-04T10:12:18.569Z,12.59
2016-12-04T10:13:29.616Z,12.48
2016-12-04T10:14:40.613Z,12.47
2016-12-04T10:15:51.814Z,12.45
2016-12-04T10:17:02.814Z,12.43
2016-12-04T10:18:13.814Z,12.62
2016-12-04T10:19:24.864Z,12.78
2016-12-04T10:20:36.068Z,12.81
2016-12-04T10:21:47.074Z,12.78
2016-12-04T10:22:58.071Z,12.92
2016-12-04T10:24:09.084Z,12.92
2016-12-04T10:25:20.136Z,12.98
2016-12-04T10:26:31.136Z,13.1
2016-12-04T10:27:42.142Z,13.11
2016-12-04T10:28:53.171Z,13.06
2016-12-04T10:30:04.170Z,13.06
2016-12-04T10:31:15.224Z,13.11
2016-12-04T10:32:26.222Z,13.07
2016-12-04T10:33:37.226Z,12.89
2016-12-04T10:34:48.226Z,12.61
2016-12-04T10:35:59.423Z,12.45
2016-12-04T10:37:10.673Z,12.33
2016-12-04T10:38:21.670Z,12.1
2016-12-04T10:39:32.675Z,11.97
2016-12-04T10:40:43.712Z,11.53
2016-12-04T10:41:54.720Z,11.3
2016-12-04T10:43:05.770Z,11.21
2016-12-04T10:44:16.768Z,11.03
2016-12-04T10:45:27.768Z,10.9
2016-12-04T10:46:38.758Z,10.75
2016-12-04T10:47:49.757Z,10.57
2016-12-04T10:49:00.802Z,10.49
2016-12-04T10:50:11.803Z,10.65
2016-12-04T10:51:23.014Z,10.77
2016-12-04T10:52:34.015Z,11
2016-12-04T10:53:45.012Z,11.02
2016-12-04T10:54:56.056Z,10.91
2016-12-04T10:56:07.245Z,10.77
2016-12-04T10:57:18.250Z,10.83
2016-12-04T10:58:29.248Z,10.63
2016-12-04T10:59:40.256Z,10.55
2016-12-04T11:00:51.701Z,10.25
2016-12-04T11:02:02.705Z,10.39
2016-12-04T11:03:13.700Z,10.39
2016-12-04T11:04:24.706Z,10.41
2016-12-04T11:05:35.698Z,10.25
2016-12-04T11:06:46.743Z,10.02
2016-12-04T11:07:57.753Z,9.67
2016-12-04T11:09:08.746Z,9.29
2016-12-04T11:10:19.745Z,8.9
2016-12-04T11:11:31.134Z,8.49
2016-12-04T11:12:42.170Z,8.28
2016-12-04T11:13:53.570Z,8.11
2016-12-04T11:15:04.557Z,7.96
2016-12-04T11:16:15.581Z,7.88
2016-12-04T11:17:26.584Z,7.75
2016-12-04T11:18:37.826Z,7.41
2016-12-04T11:19:48.822Z,7.27
2016-12-04T11:20:59.819Z,7.22
2016-12-04T11:22:10.808Z,7.39
2016-12-04T11:23:21.798Z,7.51
2016-12-04T11:24:32.840Z,7.82
2016-12-04T11:25:43.836Z,8.14
2016-12-04T11:26:54.827Z,8.29
2016-12-04T11:28:05.812Z,8.6
2016-12-04T11:29:16.794Z,8.67
2016-12-04T11:30:27.842Z,8.71
2016-12-04T11:31:39.036Z,8.86
2016-12-04T11:32:50.024Z,8.83
2016-12-04T11:34:01.018Z,8.69
2016-12-04T11:35:12.236Z,8.46
2016-12-04T11:36:23.278Z,8.31
2016-12-04T11:37:34.271Z,8.17
2016-12-04T11:38:45.296Z,7.98
2016-12-04T11:39:56.293Z,7.74
2016-12-04T11:41:07.287Z,7.44
2016-12-04T11:42:18.320Z,7.59
2016-12-04T11:43:29.348Z,7.78
2016-12-04T11:44:40.532Z,7.95
2016-12-04T11:45:51.556Z,7.95
2016-12-04T11:47:02.541Z,8.21
2016-12-04T11:48:13.612Z,8.17
2016-12-04T11:49:24.609Z,8.04
2016-12-04T11:50:35.602Z,7.96
2016-12-04T11:51:46.594Z,7.89
2016-12-04T11:52:57.591Z,7.86
2016-12-04T11:54:08.631Z,8.03
2016-12-04T11:55:19.626Z,8.04
2016-12-04T11:56:30.817Z,7.99
2016-12-04T11:57:41.833Z,8.19
2016-12-04T11:58:52.823Z,8.11
2016-12-04T12:00:03.859Z,8.22
2016-12-04T12:01:14.859Z,8.25
2016-12-04T12:02:25.849Z,8.11
2016-12-04T12:03:36.834Z,7.8
2016-12-04T12:04:48.024Z,7.29
2016-12-04T12:05:59.073Z,7.03
2016-12-04T12:07:10.068Z,6.73
2016-12-04T12:08:21.062Z,6.83
2016-12-04T12:09:32.250Z,6.98
2016-12-04T12:10:43.238Z,7.11
2016-12-04T12:11:54.277Z,7.22
2016-12-04T12:13:05.262Z,7.48
2016-12-04T12:14:16.244Z,7.4
2016-12-04T12:15:27.232Z,7.08
2016-12-04T12:16:38.625Z,6.79
2016-12-04T12:17:49.698Z,6.6
2016-12-04T12:19:00.683Z,6.95
2016-12-04T12:20:11.662Z,7.15
2016-12-04T12:21:22.653Z,7.36
2016-12-04T12:22:33.863Z,7.59
2016-12-04T12:23:44.936Z,7.86
2016-12-04T12:24:55.955Z,7.99
2016-12-04T12:26:06.944Z,8.22
2016-12-04T12:27:17.925Z,8.39
2016-12-04T12:28:28.908Z,8.65
2016-12-04T12:29:39.945Z,8.98
2016-12-04T12:30:50.944Z,9.21
2016-12-04T12:32:01.935Z,9.37
2016-12-04T12:33:13.131Z,9.52
2016-12-04T12:34:24.121Z,9.77
2016-12-04T12:35:35.154Z,10
2016-12-04T12:36:46.161Z,10.18
2016-12-04T12:37:57.147Z,10.41
2016-12-04T12:39:08.132Z,10.73
2016-12-04T12:40:19.147Z,10.95
2016-12-04T12:41:30.178Z,11.12
2016-12-04T12:42:41.173Z,11.35
2016-12-04T12:43:52.154Z,11.05
2016-12-04T12:45:03.146Z,10.95
2016-12-04T12:46:14.129Z,10.79
2016-12-04T12:47:25.168Z,10.49
2016-12-04T12:48:36.169Z,10.33
2016-12-04T12:49:47.157Z,10.23
2016-12-04T12:50:58.144Z,10
2016-12-04T12:52:09.140Z,9.89
2016-12-04T12:53:20.176Z,9.8
2016-12-04T12:54:31.369Z,9.55
2016-12-04T12:55:42.557Z,9.39
2016-12-04T12:56:53.543Z,9.29
2016-12-04T12:58:04.535Z,9.11
2016-12-04T12:59:15.772Z,9.12
2016-12-04T13:00:26.990Z,9.19
2016-12-04T13:01:38.184Z,9.2
2016-12-04T13:02:49.166Z,9.16
2016-12-04T13:04:00.161Z,8.97
2016-12-04T13:05:11.199Z,8.95
2016-12-04T13:06:22.189Z,8.94
2016-12-04T13:07:33.201Z,8.97
2016-12-04T13:08:44.188Z,8.97
2016-12-04T13:09:55.176Z,8.94
2016-12-04T13:11:06.214Z,8.95
2016-12-04T13:12:17.422Z,8.89
2016-12-04T13:13:28.407Z,8.79
2016-12-04T13:14:39.397Z,8.69
2016-12-04T13:15:50.591Z,8.47
2016-12-04T13:17:01.621Z,8.31
2016-12-04T13:18:12.609Z,8.16
2016-12-04T13:19:23.802Z,8.01
2016-12-04T13:20:34.795Z,7.92
2016-12-04T13:21:45.777Z,7.92
2016-12-04T13:22:56.824Z,7.92
2016-12-04T13:24:07.808Z,7.86
2016-12-04T13:25:18.788Z,7.98
2016-12-04T13:26:29.774Z,7.93
2016-12-04T13:27:40.756Z,7.92
2016-12-04T13:28:51.790Z,8.04
2016-12-04T13:30:03.167Z,8.09
2016-12-04T13:31:14.152Z,8.01
2016-12-04T13:32:25.141Z,7.92
2016-12-04T13:33:36.532Z,7.83
2016-12-04T13:34:47.569Z,7.77
2016-12-04T13:35:58.773Z,7.73
2016-12-04T13:37:09.954Z,7.7
2016-12-04T13:38:20.932Z,7.8
2016-12-04T13:39:31.914Z,7.85
2016-12-04T13:40:42.949Z,7.93
2016-12-04T13:41:53.939Z,7.91
2016-12-04T13:43:05.125Z,7.85
2016-12-04T13:44:16.109Z,7.82
2016-12-04T13:45:27.085Z,7.58
2016-12-04T13:46:38.161Z,7.41
2016-12-04T13:47:49.340Z,7.19
2016-12-04T13:49:00.320Z,6.83
2016-12-04T13:50:11.310Z,6.64
2016-12-04T13:51:22.302Z,6.46
2016-12-04T13:52:33.336Z,6.42
2016-12-04T13:53:44.321Z,6.37
2016-12-04T13:54:55.307Z,6.29
2016-12-04T13:56:06.294Z,6.31
2016-12-04T13:57:17.280Z,6.18
2016-12-04T13:58:28.307Z,6.15
2016-12-04T13:59:39.520Z,6.21
2016-12-04T14:00:50.504Z,6.1
2016-12-04T14:02:01.515Z,5.92
2016-12-04T14:03:12.497Z,5.88
2016-12-04T14:04:23.526Z,5.78
2016-12-04T14:05:34.510Z,5.66
2016-12-04T14:06:45.524Z,5.67
2016-12-04T14:07:56.510Z,5.57
2016-12-04T14:09:07.496Z,5.49
2016-12-04T14:10:18.533Z,5.52
2016-12-04T14:11:29.526Z,5.51
2016-12-04T14:12:40.523Z,5.41
2016-12-04T14:13:51.506Z,5.45
2016-12-04T14:15:02.494Z,5.45
2016-12-04T14:16:13.532Z,5.42
2016-12-04T14:17:24.729Z,5.34
2016-12-04T14:18:35.718Z,5.31
2016-12-04T14:19:46.726Z,5.33
2016-12-04T14:20:57.908Z,5.31
2016-12-04T14:22:08.948Z,5.31
2016-12-04T14:23:19.934Z,5.13
2016-12-04T14:24:30.924Z,5.18
2016-12-04T14:25:41.908Z,5.05
2016-12-04T14:26:52.893Z,5.03
2016-12-04T14:28:04.324Z,4.94
2016-12-04T14:29:15.507Z,4.95
2016-12-04T14:30:26.523Z,4.94
2016-12-04T14:31:37.508Z,4.87
2016-12-04T14:32:48.493Z,4.97
2016-12-04T14:33:59.739Z,4.92
2016-12-04T14:35:10.719Z,4.91
2016-12-04T14:36:21.700Z,4.85
2016-12-04T14:37:32.684Z,4.83
2016-12-04T14:38:43.862Z,4.76
2016-12-04T14:39:54.895Z,4.78
2016-12-04T14:41:05.888Z,4.74
2016-12-04T14:42:16.870Z,4.74
2016-12-04T14:43:27.861Z,4.88
2016-12-04T14:44:38.849Z,4.74
2016-12-04T14:45:50.081Z,4.72
2016-12-04T14:47:01.270Z,4.72
2016-12-04T14:48:12.255Z,4.57
2016-12-04T14:49:23.232Z,4.57
2016-12-04T14:50:34.222Z,4.56
2016-12-04T14:51:45.458Z,4.53
2016-12-04T14:52:56.471Z,4.47
2016-12-04T14:54:07.469Z,4.38
2016-12-04T14:55:18.453Z,4.39
2016-12-04T14:56:29.436Z,4.32
2016-12-04T14:57:40.676Z,4.42
2016-12-04T14:58:51.663Z,4.36
2016-12-04T15:00:02.648Z,4.26
2016-12-04T15:01:13.835Z,4.22
2016-12-04T15:02:24.820Z,4.18
2016-12-04T15:03:36.086Z,4.15
2016-12-04T15:04:47.073Z,4.08
2016-12-04T15:05:58.091Z,4.07
2016-12-04T15:07:09.071Z,3.93
2016-12-04T15:08:20.059Z,4.02
2016-12-04T15:09:31.086Z,3.85
2016-12-04T15:10:42.268Z,3.75
2016-12-04T15:11:53.257Z,3.85
2016-12-04T15:13:04.237Z,3.71
2016-12-04T15:14:15.223Z,3.74
2016-12-04T15:15:26.452Z,3.69
2016-12-04T15:16:37.460Z,3.64
2016-12-04T15:17:48.439Z,3.66
2016-12-04T15:18:59.434Z,3.57
2016-12-04T15:20:10.410Z,3.57
2016-12-04T15:21:21.440Z,3.56
2016-12-04T15:22:32.424Z,3.51
2016-12-04T15:23:43.415Z,3.54
2016-12-04T15:24:54.404Z,3.49
2016-12-04T15:26:05.586Z,3.42
2016-12-04T15:27:16.611Z,3.42